createdAt,value
2023-03-18T00:00:23.877Z,8.43
2023-03-18T00:02:55.805Z,5.30
2023-03-18T00:05:27.648Z,4.63
2023-03-18T00:07:59.381Z,4.90
2023-03-18T00:10:33.461Z,4.30
2023-03-18T00:13:05.574Z,4.70
2023-03-18T00:15:37.711Z,5.43
2023-03-18T00:18:09.779Z,5.37
2023-03-18T00:20:41.681Z,5.93
2023-03-18T00:23:13.452Z,4.80
2023-03-18T00:25:48.302Z,5.07
2023-03-18T00:28:20.436Z,6.43
2023-03-18T00:30:52.241Z,5.20
2023-03-18T00:33:24.525Z,6.03
2023-03-18T00:35:56.446Z,4.77
2023-03-18T00:38:30.379Z,4.73
2023-03-18T00:41:11.018Z,7.00
2023-03-18T00:43:54.374Z,6.47
2023-03-18T00:46:29.219Z,4.07
2023-03-18T00:49:05.125Z,3.60
2023-03-18T00:51:37.604Z,3.67
2023-03-18T00:54:12.884Z,2.73
2023-03-18T00:56:44.908Z,3.43
2023-03-18T00:59:16.666Z,3.67
2023-03-18T01:01:48.486Z,5.97
2023-03-18T01:04:21.593Z,3.60
2023-03-18T01:06:53.509Z,4.40
2023-03-18T01:09:25.596Z,3.43
2023-03-18T01:11:57.496Z,3.40
2023-03-18T01:14:29.977Z,4.23
2023-03-18T01:17:02.322Z,3.43
2023-03-18T01:19:34.700Z,3.33
2023-03-18T01:22:07.512Z,4.33
2023-03-18T01:24:39.420Z,2.70
2023-03-18T01:27:11.370Z,3.20
2023-03-18T01:29:43.094Z,2.80
2023-03-18T01:32:16.068Z,3.47
2023-03-18T01:34:47.920Z,2.80
2023-03-18T01:37:19.775Z,2.23
2023-03-18T01:39:51.524Z,2.47
2023-03-18T01:42:23.336Z,4.20
2023-03-18T01:45:22.129Z,8.73
2023-03-18T01:47:55.686Z,3.07
2023-03-18T01:50:37.951Z,4.17
2023-03-18T01:53:13.803Z,2.27
2023-03-18T01:55:47.591Z,2.17
2023-03-18T01:58:25.184Z,3.17
2023-03-18T02:01:31.044Z,2.73
2023-03-18T02:04:06.063Z,2.67
2023-03-18T02:06:38.600Z,2.70
2023-03-18T02:09:11.460Z,3.10
2023-03-18T02:11:46.416Z,3.70
2023-03-18T02:14:21.088Z,1.90
2023-03-18T02:17:03.001Z,2.60
2023-03-18T02:19:52.982Z,2.70
2023-03-18T02:22:52.144Z,2.50
2023-03-18T02:25:58.661Z,2.70
2023-03-18T02:28:31.861Z,3.00
2023-03-18T02:31:09.625Z,2.57
2023-03-18T02:33:42.733Z,2.60
2023-03-18T02:36:24.584Z,4.57
2023-03-18T02:38:57.588Z,4.50
2023-03-18T02:41:33.322Z,4.53
2023-03-18T02:44:05.091Z,3.33
2023-03-18T02:46:51.973Z,2.83
2023-03-18T02:49:27.635Z,2.10
2023-03-18T02:52:00.053Z,3.17
2023-03-18T02:54:32.010Z,2.37
2023-03-18T02:57:03.851Z,3.00
2023-03-18T02:59:35.682Z,2.30
2023-03-18T03:02:07.784Z,2.43
2023-03-18T03:04:39.771Z,3.97
2023-03-18T03:07:12.302Z,2.70
2023-03-18T03:09:44.032Z,3.20
2023-03-18T03:12:15.750Z,5.43
2023-03-18T03:14:47.404Z,2.40
2023-03-18T03:17:19.195Z,4.80
2023-03-18T03:19:50.897Z,2.20
2023-03-18T03:22:22.621Z,3.00
2023-03-18T03:24:54.460Z,2.30
2023-03-18T03:27:26.453Z,1.93
2023-03-18T03:29:58.266Z,4.87
2023-03-18T03:32:30.130Z,7.00
2023-03-18T03:35:02.071Z,2.47
2023-03-18T03:37:34.785Z,2.70
2023-03-18T03:40:08.201Z,3.33
2023-03-18T03:42:40.352Z,4.73
2023-03-18T03:45:14.018Z,3.07
2023-03-18T03:47:47.025Z,6.70
2023-03-18T03:50:18.919Z,2.87
2023-03-18T03:52:51.215Z,7.00
2023-03-18T03:55:23.717Z,2.77
2023-03-18T03:57:56.500Z,2.90
2023-03-18T04:00:28.425Z,2.30
2023-03-18T04:03:00.323Z,2.93
2023-03-18T04:05:32.261Z,2.53
2023-03-18T04:08:04.118Z,3.70
2023-03-18T04:10:36.760Z,2.30
2023-03-18T04:13:08.839Z,3.33
2023-03-18T04:15:40.863Z,2.43
2023-03-18T04:18:13.277Z,2.37
2023-03-18T04:20:45.012Z,2.93
2023-03-18T04:23:16.744Z,2.60
2023-03-18T04:25:48.500Z,7.60
2023-03-18T04:28:20.250Z,3.20
2023-03-18T04:30:52.349Z,2.40
2023-03-18T04:33:24.087Z,2.77
2023-03-18T04:35:56.353Z,2.90
2023-03-18T04:38:28.545Z,3.60
2023-03-18T04:41:00.255Z,2.97
2023-03-18T04:43:32.055Z,2.27
2023-03-18T04:46:03.946Z,2.77
2023-03-18T04:48:35.852Z,2.60
2023-03-18T04:51:12.602Z,2.97
2023-03-18T04:53:44.437Z,4.43
2023-03-18T04:56:16.186Z,2.63
2023-03-18T04:58:48.064Z,3.27
2023-03-18T05:01:20.331Z,2.40
2023-03-18T05:03:52.783Z,4.93
2023-03-18T05:06:27.381Z,3.00
2023-03-18T05:09:00.578Z,4.50
2023-03-18T05:11:33.053Z,2.63
2023-03-18T05:14:04.704Z,6.23
2023-03-18T05:16:36.933Z,3.27
2023-03-18T05:19:09.722Z,8.50
2023-03-18T05:21:41.713Z,3.50
2023-03-18T05:24:13.441Z,2.70
2023-03-18T05:26:45.136Z,3.77
2023-03-18T05:29:16.994Z,5.20
2023-03-18T05:31:48.846Z,5.53
2023-03-18T05:34:20.889Z,3.50
2023-03-18T05:36:52.616Z,8.50
2023-03-18T05:39:24.398Z,5.00
2023-03-18T05:41:56.621Z,2.70
2023-03-18T05:44:29.420Z,4.60
2023-03-18T05:47:01.799Z,2.97
2023-03-18T05:49:33.529Z,3.03
2023-03-18T05:52:05.799Z,3.00
2023-03-18T05:54:38.096Z,2.42
2023-03-18T05:57:09.965Z,2.70
2023-03-18T05:59:41.742Z,3.57
2023-03-18T06:02:13.448Z,3.40
2023-03-18T06:04:45.414Z,2.87
2023-03-18T06:07:17.219Z,2.60
2023-03-18T06:09:49.037Z,3.27
2023-03-18T06:12:23.058Z,3.60
2023-03-18T06:14:54.969Z,3.13
2023-03-18T06:17:27.638Z,3.30
2023-03-18T06:19:59.607Z,3.83
2023-03-18T06:22:32.491Z,3.30
2023-03-18T06:25:08.021Z,5.70
2023-03-18T06:27:39.833Z,4.83
2023-03-18T06:30:13.306Z,9.47
2023-03-18T06:32:45.395Z,2.70
2023-03-18T06:35:17.317Z,4.77
2023-03-18T06:37:49.036Z,5.77
2023-03-18T06:40:20.737Z,4.00
2023-03-18T06:42:52.511Z,3.03
2023-03-18T06:45:25.510Z,2.63
2023-03-18T06:47:57.166Z,3.40
2023-03-18T06:50:29.427Z,2.73
2023-03-18T06:53:01.150Z,4.20
2023-03-18T06:55:33.369Z,4.00
2023-03-18T06:58:06.111Z,4.43
2023-03-18T07:00:37.843Z,4.90
2023-03-18T07:03:09.667Z,7.30
2023-03-18T07:05:42.141Z,12.50
2023-03-18T07:08:15.626Z,4.37
2023-03-18T07:10:47.270Z,10.63
2023-03-18T07:13:19.377Z,4.40
2023-03-18T07:15:51.197Z,3.67
2023-03-18T07:18:23.966Z,5.60
2023-03-18T07:20:55.734Z,6.00
2023-03-18T07:23:27.664Z,3.93
2023-03-18T07:26:00.060Z,2.77
2023-03-18T07:28:31.919Z,3.47
2023-03-18T07:31:03.976Z,5.27
2023-03-18T07:33:35.729Z,3.30
2023-03-18T07:36:08.517Z,3.60
2023-03-18T07:38:40.630Z,2.93
2023-03-18T07:41:12.578Z,4.27
2023-03-18T07:43:44.235Z,6.90
2023-03-18T07:46:16.011Z,5.50
2023-03-18T07:48:48.943Z,2.77
2023-03-18T07:51:20.676Z,2.80
2023-03-18T07:53:52.380Z,2.67
2023-03-18T07:56:24.534Z,2.83
2023-03-18T07:58:56.256Z,2.93
2023-03-18T08:01:28.808Z,2.93
2023-03-18T08:04:00.875Z,2.63
2023-03-18T08:06:32.963Z,3.10
2023-03-18T08:09:05.435Z,4.30
2023-03-18T08:11:38.138Z,2.63
2023-03-18T08:14:09.892Z,2.20
2023-03-18T08:16:42.564Z,3.03
2023-03-18T08:19:14.304Z,3.30
2023-03-18T08:21:45.993Z,2.20
2023-03-18T08:24:18.355Z,2.90
2023-03-18T08:26:50.093Z,5.40
2023-03-18T08:29:21.827Z,2.20
2023-03-18T08:31:54.247Z,4.13
2023-03-18T08:34:25.963Z,4.60
2023-03-18T08:36:57.656Z,2.50
2023-03-18T08:39:29.389Z,2.40
2023-03-18T08:42:06.172Z,5.33
2023-03-18T08:44:37.982Z,2.20
2023-03-18T08:47:09.745Z,6.10
2023-03-18T08:49:41.468Z,2.50
2023-03-18T08:52:13.296Z,2.40
2023-03-18T08:54:45.818Z,3.97
2023-03-18T08:57:18.080Z,2.00
2023-03-18T08:59:49.919Z,2.20
2023-03-18T09:02:21.681Z,2.40
2023-03-18T09:04:55.750Z,2.20
2023-03-18T09:07:28.390Z,1.83
2023-03-18T09:10:00.066Z,4.80
2023-03-18T09:12:31.870Z,2.43
2023-03-18T09:15:05.859Z,3.60
2023-03-18T09:17:56.622Z,2.03
2023-03-18T09:20:33.339Z,2.23
2023-03-18T09:23:05.138Z,2.23
2023-03-18T09:25:36.828Z,2.37
2023-03-18T09:28:08.986Z,1.77
2023-03-18T09:30:40.889Z,4.70
2023-03-18T09:33:13.718Z,2.23
2023-03-18T09:35:45.499Z,1.90
2023-03-18T09:38:19.794Z,1.83
2023-03-18T09:41:16.474Z,1.77
2023-03-18T09:44:17.407Z,2.20
2023-03-18T09:50:38.096Z,1.90
2023-03-18T09:53:34.798Z,3.40
2023-03-18T09:56:10.621Z,2.87
2023-03-18T09:58:53.722Z,1.60
2023-03-18T10:01:28.322Z,2.90
2023-03-18T10:04:04.407Z,1.97
2023-03-18T10:06:37.533Z,2.73
2023-03-18T10:09:39.707Z,1.73
2023-03-18T10:12:32.876Z,1.50
2023-03-18T10:15:10.997Z,1.63
2023-03-18T10:17:49.211Z,1.60
2023-03-18T10:20:42.497Z,1.50
2023-03-18T10:23:42.909Z,1.60
2023-03-18T10:26:29.957Z,2.07
2023-03-18T10:29:06.235Z,1.97
2023-03-18T10:31:43.938Z,1.97
2023-03-18T10:34:22.828Z,1.50
2023-03-18T10:37:10.982Z,2.30
2023-03-18T10:39:45.742Z,2.90
2023-03-18T10:42:27.295Z,1.90
2023-03-18T10:45:24.614Z,4.00
2023-03-18T10:48:05.811Z,2.50
2023-03-18T10:50:43.877Z,1.70
2023-03-18T10:53:29.917Z,3.70
2023-03-18T10:56:09.266Z,3.20
2023-03-18T10:58:42.445Z,3.43
2023-03-18T11:01:20.559Z,2.03
2023-03-18T11:04:06.732Z,2.33
2023-03-18T11:06:58.246Z,3.00
2023-03-18T11:09:36.396Z,2.30
2023-03-18T11:12:22.789Z,2.40
2023-03-18T11:14:56.253Z,3.70
2023-03-18T11:17:35.772Z,3.60
2023-03-18T11:20:16.924Z,2.70
2023-03-18T11:22:52.236Z,1.60
2023-03-18T11:25:29.180Z,2.20
2023-03-18T11:28:06.359Z,5.03
2023-03-18T11:30:57.329Z,1.93
2023-03-18T11:33:37.287Z,2.13
2023-03-18T11:36:16.524Z,2.47
2023-03-18T11:39:04.448Z,2.53
2023-03-18T11:41:39.912Z,3.37
2023-03-18T11:44:19.089Z,3.20
2023-03-18T11:47:10.798Z,2.63
2023-03-18T11:49:45.936Z,1.97
2023-03-18T11:52:26.797Z,5.50
2023-03-18T11:55:01.777Z,2.23
2023-03-18T11:58:01.224Z,2.67
2023-03-18T12:00:50.287Z,2.20
2023-03-18T12:03:46.597Z,4.07
2023-03-18T12:06:24.563Z,3.73
2023-03-18T12:09:22.823Z,1.77
2023-03-18T12:12:08.216Z,3.10
2023-03-18T12:14:54.713Z,2.50
2023-03-18T12:17:35.293Z,3.70
2023-03-18T12:20:33.902Z,2.63
2023-03-18T12:23:54.204Z,2.30
2023-03-18T12:26:32.089Z,2.30
2023-03-18T12:29:09.662Z,1.80
2023-03-18T12:32:16.079Z,2.13
2023-03-18T12:34:57.542Z,1.93
2023-03-18T12:37:47.893Z,2.42
2023-03-18T12:40:29.212Z,3.10
2023-03-18T12:47:16.734Z,2.03
2023-03-18T12:53:38.441Z,3.80
2023-03-18T13:00:13.213Z,2.00
2023-03-18T13:03:30.057Z,5.30
2023-03-18T13:06:17.560Z,1.57
2023-03-18T13:09:39.583Z,4.97
2023-03-18T13:12:14.497Z,2.23
2023-03-18T13:15:08.254Z,2.80
2023-03-18T13:17:42.208Z,1.70
2023-03-18T13:20:38.670Z,2.87
2023-03-18T13:23:25.985Z,2.07
2023-03-18T13:26:22.545Z,2.30
2023-03-18T13:29:12.864Z,3.63
2023-03-18T13:32:09.529Z,2.67
2023-03-18T13:35:22.942Z,2.07
2023-03-18T13:37:54.628Z,2.30
2023-03-18T13:40:47.497Z,1.97
2023-03-18T13:43:21.896Z,3.80
2023-03-18T13:45:54.978Z,2.77
2023-03-18T13:48:34.770Z,5.63
2023-03-18T13:51:40.568Z,2.53
2023-03-18T13:54:19.641Z,2.00
2023-03-18T13:56:55.635Z,3.50
2023-03-18T13:59:33.174Z,1.87
2023-03-18T14:02:23.559Z,1.83
2023-03-18T14:04:58.310Z,4.10
2023-03-18T14:07:30.553Z,1.97
2023-03-18T14:10:17.995Z,3.53
2023-03-18T14:12:51.018Z,2.10
2023-03-18T14:15:37.094Z,2.40
2023-03-18T14:18:27.511Z,1.80
2023-03-18T14:21:01.948Z,3.07
2023-03-18T14:23:38.908Z,1.67
2023-03-18T14:26:19.750Z,2.27
2023-03-18T14:28:57.398Z,2.23
2023-03-18T14:31:44.224Z,1.70
2023-03-18T14:34:18.950Z,4.67
2023-03-18T14:36:53.590Z,3.20
2023-03-18T14:39:31.829Z,1.80
2023-03-18T14:42:09.954Z,1.60
2023-03-18T14:44:52.439Z,2.90
2023-03-18T14:47:39.853Z,1.83
2023-03-18T14:50:42.007Z,2.50
2023-03-18T14:53:17.900Z,3.30
2023-03-18T14:55:51.462Z,2.07
2023-03-18T14:58:23.861Z,1.60
2023-03-18T15:01:04.480Z,2.10
2023-03-18T15:03:39.770Z,2.37
2023-03-18T15:06:21.875Z,1.90
2023-03-18T15:09:01.424Z,2.30
2023-03-18T15:11:42.208Z,2.00
2023-03-18T15:14:34.384Z,2.27
2023-03-18T15:17:16.832Z,2.00
2023-03-18T15:19:48.572Z,1.97
2023-03-18T15:22:26.142Z,1.97
2023-03-18T15:25:08.360Z,1.93
2023-03-18T15:27:40.741Z,3.43
2023-03-18T15:30:50.244Z,2.30
2023-03-18T15:33:38.424Z,1.80
2023-03-18T15:36:16.991Z,2.13
2023-03-18T15:38:50.547Z,1.60
2023-03-18T15:41:23.480Z,2.70
2023-03-18T15:43:55.169Z,2.20
2023-03-18T15:46:32.154Z,2.43
2023-03-18T15:49:05.566Z,2.13
2023-03-18T15:51:45.071Z,2.20
2023-03-18T15:54:22.432Z,2.87
2023-03-18T15:56:56.232Z,2.33
2023-03-18T15:59:32.362Z,3.67
2023-03-18T16:02:14.457Z,2.60
2023-03-18T16:04:48.301Z,4.17
2023-03-18T16:07:28.174Z,2.60
2023-03-18T16:10:00.375Z,6.73
2023-03-18T16:12:34.081Z,2.97
2023-03-18T16:15:07.584Z,3.30
2023-03-18T16:17:39.782Z,5.70
2023-03-18T16:20:21.416Z,2.77
2023-03-18T16:22:53.576Z,4.23
2023-03-18T16:25:25.873Z,2.70
2023-03-18T16:27:59.703Z,2.90
2023-03-18T16:30:33.583Z,3.30
2023-03-18T16:33:16.989Z,2.60
2023-03-18T16:35:56.822Z,2.43
2023-03-18T16:38:31.103Z,2.70
2023-03-18T16:41:03.750Z,2.50
2023-03-18T16:43:35.481Z,2.90
2023-03-18T16:46:13.296Z,6.67
2023-03-18T16:48:45.112Z,3.13
2023-03-18T16:51:17.525Z,3.07
2023-03-18T16:53:49.980Z,3.07
2023-03-18T16:56:23.806Z,3.77
2023-03-18T16:58:55.997Z,5.90
2023-03-18T17:01:28.077Z,2.77
2023-03-18T17:03:59.982Z,6.03
2023-03-18T17:06:31.754Z,5.73
2023-03-18T17:09:04.347Z,4.50
2023-03-18T17:11:36.266Z,5.60
2023-03-18T17:14:22.482Z,10.40
2023-03-18T17:16:54.394Z,5.03
2023-03-18T17:19:26.492Z,5.27
2023-03-18T17:21:58.363Z,8.60
2023-03-18T17:24:30.329Z,3.53
2023-03-18T17:27:02.144Z,3.93
2023-03-18T17:29:33.963Z,4.00
2023-03-18T17:32:06.156Z,4.20
2023-03-18T17:34:38.440Z,3.17
2023-03-18T17:37:10.197Z,4.80
2023-03-18T17:39:42.061Z,3.10
2023-03-18T17:42:30.171Z,3.20
2023-03-18T17:45:29.411Z,3.53
2023-03-18T17:48:10.328Z,2.93
2023-03-18T17:50:44.212Z,2.73
2023-03-18T17:53:37.406Z,3.17
2023-03-18T17:56:13.988Z,3.70
2023-03-18T17:58:48.592Z,3.30
2023-03-18T18:01:28.940Z,9.03
2023-03-18T18:04:01.685Z,2.90
2023-03-18T18:06:33.815Z,5.83
2023-03-18T18:09:06.522Z,3.23
2023-03-18T18:11:44.203Z,3.10
2023-03-18T18:14:29.091Z,2.00
2023-03-18T18:17:01.401Z,3.93
2023-03-18T18:19:33.762Z,3.60
2023-03-18T18:22:06.949Z,5.77
2023-03-18T18:24:38.657Z,3.80
2023-03-18T18:27:15.407Z,3.30
2023-03-18T18:29:48.152Z,7.65
2023-03-18T18:32:21.834Z,5.60
2023-03-18T18:34:53.899Z,3.60
2023-03-18T18:37:25.720Z,3.70
2023-03-18T18:39:57.398Z,4.07
2023-03-18T18:42:29.216Z,5.33
2023-03-18T18:45:01.264Z,4.87
2023-03-18T18:47:36.952Z,3.30
2023-03-18T18:50:21.565Z,5.63
2023-03-18T18:52:53.926Z,3.50
2023-03-18T18:55:25.747Z,3.70
2023-03-18T18:57:57.937Z,3.97
2023-03-18T19:00:30.238Z,3.27
2023-03-18T19:03:02.817Z,3.63
2023-03-18T19:05:35.856Z,6.10
2023-03-18T19:08:28.059Z,7.60
2023-03-18T19:11:01.874Z,3.20
2023-03-18T19:13:35.590Z,5.70
2023-03-18T19:16:34.856Z,4.57
2023-03-18T19:19:09.591Z,4.07
2023-03-18T19:21:42.661Z,7.63
2023-03-18T19:24:31.524Z,3.47
2023-03-18T19:27:06.051Z,4.13
2023-03-18T19:29:38.513Z,3.70
2023-03-18T19:32:21.608Z,4.27
2023-03-18T19:34:54.649Z,3.73
2023-03-18T19:37:32.428Z,4.43
2023-03-18T19:40:19.618Z,6.67
2023-03-18T19:42:51.428Z,5.73
2023-03-18T19:45:23.283Z,4.30
2023-03-18T19:47:55.390Z,4.50
2023-03-18T19:50:27.571Z,3.97
2023-03-18T19:53:00.176Z,3.30
2023-03-18T19:55:32.006Z,8.77
2023-03-18T19:58:03.798Z,5.53
2023-03-18T20:00:35.774Z,3.20
2023-03-18T20:03:13.961Z,4.38
2023-03-18T20:05:46.718Z,4.70
2023-03-18T20:08:18.570Z,4.87
2023-03-18T20:10:50.595Z,4.57
2023-03-18T20:13:22.720Z,6.00
2023-03-18T20:15:54.652Z,6.13
2023-03-18T20:18:26.478Z,5.67
2023-03-18T20:20:58.443Z,4.87
2023-03-18T20:23:30.317Z,5.20
2023-03-18T20:26:02.177Z,4.27
2023-03-18T20:28:34.011Z,4.10
2023-03-18T20:31:06.095Z,5.67
2023-03-18T20:33:37.932Z,5.63
2023-03-18T20:36:16.853Z,6.83
2023-03-18T20:38:50.182Z,8.53
2023-03-18T20:41:23.349Z,5.00
2023-03-18T20:43:55.066Z,5.50
2023-03-18T20:46:26.955Z,4.90
2023-03-18T20:48:58.915Z,5.00
2023-03-18T20:51:36.080Z,5.57
2023-03-18T20:54:21.057Z,5.83
2023-03-18T20:56:53.036Z,6.80
2023-03-18T20:59:25.094Z,6.50
2023-03-18T21:01:56.830Z,5.80
2023-03-18T21:04:28.781Z,8.97
2023-03-18T21:07:00.532Z,8.17
2023-03-18T21:09:32.291Z,10.00
2023-03-18T21:12:04.350Z,9.53
2023-03-18T21:14:36.128Z,7.50
2023-03-18T21:17:17.437Z,6.73
2023-03-18T21:19:50.196Z,7.13
2023-03-18T21:22:26.460Z,5.40
2023-03-18T21:24:58.267Z,6.00
2023-03-18T21:27:31.283Z,7.87
2023-03-18T21:30:03.677Z,7.10
2023-03-18T21:32:38.737Z,7.87
2023-03-18T21:35:23.059Z,7.00
2023-03-18T21:37:54.853Z,9.20
2023-03-18T21:40:27.295Z,12.87
2023-03-18T21:42:59.164Z,11.50
2023-03-18T21:45:31.149Z,6.30
2023-03-18T21:48:03.023Z,5.77
2023-03-18T21:50:34.981Z,6.07
2023-03-18T21:53:12.751Z,9.80
2023-03-18T21:55:44.717Z,8.93
2023-03-18T21:58:18.903Z,9.20
2023-03-18T22:00:56.104Z,8.47
2023-03-18T22:03:29.555Z,8.50
2023-03-18T22:06:01.295Z,8.53
2023-03-18T22:08:33.115Z,10.83
2023-03-18T22:11:12.290Z,7.70
2023-03-18T22:13:44.773Z,15.63
2023-03-18T22:16:18.003Z,10.40
2023-03-18T22:18:49.846Z,10.00
2023-03-18T22:21:25.364Z,9.67
2023-03-18T22:23:58.183Z,14.93
2023-03-18T22:26:30.113Z,12.10
2023-03-18T22:29:01.840Z,13.40
2023-03-18T22:31:33.579Z,17.87
2023-03-18T22:34:20.424Z,15.73
2023-03-18T22:36:52.105Z,12.90
2023-03-18T22:39:23.932Z,15.40
2023-03-18T22:41:55.792Z,16.97
2023-03-18T22:44:27.490Z,13.47
2023-03-18T22:46:59.279Z,16.67
2023-03-18T22:49:31.050Z,17.53
2023-03-18T22:52:04.790Z,15.60
2023-03-18T22:54:36.485Z,17.80
2023-03-18T22:57:14.119Z,16.93
2023-03-18T22:59:45.870Z,15.30
2023-03-18T23:02:23.643Z,15.57
2023-03-18T23:04:56.361Z,14.77
2023-03-18T23:07:32.138Z,10.80
2023-03-18T23:10:04.736Z,14.33
2023-03-18T23:12:36.674Z,14.63
2023-03-18T23:15:14.243Z,16.70
2023-03-18T23:17:46.293Z,13.67
2023-03-18T23:20:18.460Z,10.10
2023-03-18T23:22:50.205Z,8.47
2023-03-18T23:25:21.857Z,11.10
2023-03-18T23:27:53.608Z,8.57
2023-03-18T23:30:25.460Z,7.20
2023-03-18T23:32:57.866Z,7.90
2023-03-18T23:35:29.675Z,7.63
2023-03-18T23:38:01.438Z,8.27
2023-03-18T23:40:33.489Z,9.10
2023-03-18T23:43:05.430Z,9.40
2023-03-18T23:45:38.474Z,14.00
2023-03-18T23:48:10.729Z,8.53
2023-03-18T23:50:42.546Z,8.90
2023-03-18T23:53:14.350Z,11.00
2023-03-18T23:55:49.115Z,9.40
2023-03-18T23:58:21.118Z,9.60
